Terminal Aerodrome Forecast
Issued by NWS Lake Charles, LA

Home | Current Version | Previous Version | Text Only | Print | Product List | Glossary On
Versions: 1 2 3 4 5 6 7 8 9 10 11 12 13 14 15
587
FTUS44 KLCH 221727
TAFLFT
TAF
KLFT 221727Z 2218/2318 36014G20KT P6SM -RA OVC060
     FM230000 36011KT P6SM SCT100
     FM230200 36007KT P6SM SCT250=

USA.gov is the U.S. government's official web portal to all federal, state and local government web resources and services.